Time;durP1;ratioP1;P1;durP2;ratioP2;P2;SDS_P1;SDS_P2;PMS_P1;PMS_P2;Temp;Humidity;BMP_temperature;BMP_pressure;BME280_temperature;BME280_humidity;BME280_pressure;Samples;Min_cycle;Max_cycle;Signal;HPM_P1;HPM_P2
2020/12/29 00:02:22;;;;;;;32.17;23.63;;;;;1.30;97495.00;;;;10455785;28;20252;-75
2020/12/29 00:07:23;;;;;;;34.43;24.43;;;;;1.40;97500.00;;;;10438424;28;20610;-75
2020/12/29 00:12:24;;;;;;;34.50;25.37;;;;;1.40;97513.00;;;;10438666;28;20647;-75
2020/12/29 00:17:26;;;;;;;34.80;25.77;;;;;1.40;97517.00;;;;10413826;28;20252;-76
2020/12/29 00:22:27;;;;;;;32.47;26.27;;;;;1.40;97513.00;;;;10380072;28;20203;-75
2020/12/29 00:27:28;;;;;;;36.00;25.03;;;;;1.40;97516.00;;;;10414698;28;20194;-75
2020/12/29 00:32:29;;;;;;;36.73;27.23;;;;;1.40;97527.00;;;;10394560;28;20638;-75
2020/12/29 00:37:31;;;;;;;36.17;26.80;;;;;1.40;97528.00;;;;10445588;28;20604;-75
2020/12/29 00:42:33;;;;;;;36.27;26.37;;;;;1.40;97532.00;;;;10445813;28;20264;-75
2020/12/29 00:47:35;;;;;;;40.33;26.67;;;;;1.40;97539.00;;;;10463293;28;20186;-75
2020/12/29 00:52:36;;;;;;;36.57;27.30;;;;;1.40;97544.00;;;;10445377;28;20194;-75
2020/12/29 00:57:51;;;;;;;40.03;27.97;;;;;1.40;97532.00;;;;10431089;28;20197;-75
2020/12/29 01:02:53;;;;;;;40.87;29.17;;;;;1.40;97533.00;;;;10428081;28;20279;-75
2020/12/29 01:07:54;;;;;;;37.47;27.67;;;;;1.40;97533.00;;;;10445437;28;20281;-75
2020/12/29 01:12:56;;;;;;;39.10;25.93;;;;;1.50;97541.00;;;;10427974;28;20569;-75
2020/12/29 01:17:57;;;;;;;36.03;25.83;;;;;1.50;97549.00;;;;10411845;28;20198;-76
2020/12/29 01:22:59;;;;;;;40.13;30.73;;;;;1.60;97559.00;;;;10386618;28;20238;-76
2020/12/29 01:28:00;;;;;;;42.07;29.93;;;;;1.60;97572.00;;;;10402991;28;20218;-75
2020/12/29 01:33:04;;;;;;;36.63;24.43;;;;;1.60;97580.00;;;;10386211;28;20218;-75
2020/12/29 01:38:05;;;;;;;33.97;24.00;;;;;1.60;97582.00;;;;10401952;28;20931;-75
2020/12/29 01:43:07;;;;;;;33.97;23.23;;;;;1.70;97581.00;;;;10384649;28;20222;-75
2020/12/29 01:48:08;;;;;;;31.57;23.17;;;;;1.70;97593.00;;;;10385908;28;20274;-75
2020/12/29 01:53:10;;;;;;;32.07;22.53;;;;;1.70;97581.00;;;;10402101;28;20539;-75
2020/12/29 01:58:11;;;;;;;34.93;22.57;;;;;1.80;97595.00;;;;10385143;28;20237;-76
2020/12/29 02:03:16;;;;;;;34.07;22.73;;;;;1.80;97596.00;;;;10401466;28;20246;-75
2020/12/29 02:08:18;;;;;;;29.93;22.10;;;;;1.80;97610.00;;;;10401305;28;20241;-76
2020/12/29 02:13:21;;;;;;;30.17;20.73;;;;;1.90;97603.00;;;;10407238;28;20251;-76
2020/12/29 02:18:22;;;;;;;27.70;21.40;;;;;1.90;97603.00;;;;10425380;28;20535;-76
2020/12/29 02:23:23;;;;;;;34.60;22.07;;;;;1.90;97603.00;;;;10425046;28;20275;-75
2020/12/29 02:28:25;;;;;;;29.03;21.13;;;;;1.80;97620.00;;;;10424750;28;20214;-76
2020/12/29 02:33:26;;;;;;;33.37;20.90;;;;;1.70;97610.00;;;;10425128;28;20236;-76
2020/12/29 02:38:27;;;;;;;26.27;18.30;;;;;1.70;97619.00;;;;10440790;28;20252;-75
2020/12/29 02:43:28;;;;;;;29.67;18.77;;;;;1.70;97637.00;;;;10441233;28;20268;-75
2020/12/29 02:48:30;;;;;;;24.93;20.17;;;;;1.70;97634.00;;;;10424175;28;20256;-75
2020/12/29 02:53:31;;;;;;;28.13;19.87;;;;;1.70;97640.00;;;;10440933;28;20182;-75
2020/12/29 02:58:32;;;;;;;28.17;20.10;;;;;1.70;97663.00;;;;10407194;28;20665;-75
2020/12/29 03:03:34;;;;;;;31.77;20.50;;;;;1.70;97656.00;;;;10423640;28;20263;-75
2020/12/29 03:08:35;;;;;;;27.37;20.17;;;;;1.70;97667.00;;;;10439540;28;20637;-75
2020/12/29 03:13:36;;;;;;;29.80;19.47;;;;;1.80;97679.00;;;;10457618;28;20225;-75
2020/12/29 03:18:37;;;;;;;25.17;17.67;;;;;1.90;97677.00;;;;10457020;28;20218;-75
2020/12/29 03:23:39;;;;;;;25.60;15.90;;;;;2.00;97690.00;;;;10439537;28;20214;-75
2020/12/29 03:28:40;;;;;;;21.30;14.47;;;;;2.10;97702.00;;;;10456376;28;20221;-75
2020/12/29 03:33:42;;;;;;;18.83;12.90;;;;;2.20;97709.00;;;;10421453;28;20182;-75
2020/12/29 03:38:44;;;;;;;17.77;11.13;;;;;2.30;97711.00;;;;10438944;28;20186;-76
2020/12/29 03:43:45;;;;;;;18.77;11.23;;;;;2.40;97710.00;;;;10421792;28;20244;-75
2020/12/29 03:48:47;;;;;;;22.20;12.00;;;;;2.50;97714.00;;;;10421338;28;20244;-75
2020/12/29 03:53:48;;;;;;;20.23;12.03;;;;;2.40;97712.00;;;;10436822;28;20664;-75
2020/12/29 03:58:49;;;;;;;17.70;11.63;;;;;2.40;97723.00;;;;10430954;28;20240;-75
2020/12/29 04:03:51;;;;;;;18.20;11.17;;;;;2.40;97737.00;;;;10455211;28;20264;-75
2020/12/29 04:08:52;;;;;;;27.63;10.67;;;;;2.40;97743.00;;;;10438024;28;20198;-75
2020/12/29 04:13:53;;;;;;;19.13;9.27;;;;;2.40;97746.00;;;;10444270;28;20249;-75
2020/12/29 04:18:55;;;;;;;15.23;9.37;;;;;2.40;97753.00;;;;10414255;28;20240;-75
2020/12/29 04:23:56;;;;;;;18.50;8.47;;;;;2.30;97762.00;;;;10396309;28;20242;-75
2020/12/29 04:28:57;;;;;;;13.10;8.53;;;;;2.20;97765.00;;;;10412894;28;20222;-75
2020/12/29 04:33:59;;;;;;;16.20;8.73;;;;;2.30;97767.00;;;;10395566;28;20222;-75
2020/12/29 04:39:03;;;;;;;16.87;9.97;;;;;2.30;97777.00;;;;10379566;28;20203;-75
2020/12/29 04:44:04;;;;;;;15.43;9.33;;;;;2.40;97783.00;;;;10425178;28;20264;-75
2020/12/29 04:49:06;;;;;;;19.53;12.03;;;;;2.50;97780.00;;;;10403626;28;20225;-75
2020/12/29 04:54:08;;;;;;;16.37;12.30;;;;;2.60;97791.00;;;;10436930;28;20205;-75
2020/12/29 04:59:09;;;;;;;19.83;14.33;;;;;2.60;97801.00;;;;10454227;28;20198;-75
2020/12/29 05:04:13;;;;;;;26.27;15.63;;;;;2.70;97811.00;;;;10419622;28;20754;-75
2020/12/29 05:09:16;;;;;;;26.20;16.33;;;;;2.70;97824.00;;;;10454568;28;20210;-75
2020/12/29 05:14:18;;;;;;;28.23;15.83;;;;;2.70;97817.00;;;;10436805;28;20289;-75
2020/12/29 05:19:20;;;;;;;26.23;16.37;;;;;2.70;97828.00;;;;10444169;28;20206;-76
2020/12/29 05:24:23;;;;;;;26.50;17.17;;;;;2.70;97838.00;;;;10426990;28;20202;-75
2020/12/29 05:29:25;;;;;;;27.07;17.17;;;;;2.70;97839.00;;;;10443965;28;20191;-75
2020/12/29 05:34:29;;;;;;;26.77;16.37;;;;;2.70;97857.00;;;;10443294;28;20244;-75
2020/12/29 05:39:30;;;;;;;25.80;16.40;;;;;2.70;97860.00;;;;10442849;28;20202;-75
2020/12/29 05:44:35;;;;;;;24.90;14.67;;;;;2.80;97871.00;;;;10443420;28;20226;-75
2020/12/29 05:49:37;;;;;;;25.17;15.27;;;;;2.80;97878.00;;;;10426549;28;20186;-75
2020/12/29 05:54:40;;;;;;;20.57;13.60;;;;;2.80;97878.00;;;;10460629;28;20232;-76
2020/12/29 05:59:44;;;;;;;20.93;13.13;;;;;2.90;97888.00;;;;10441917;28;20610;-75
2020/12/29 06:04:48;;;;;;;22.50;13.07;;;;;2.90;97896.00;;;;10441702;28;20260;-75
2020/12/29 06:09:50;;;;;;;28.80;15.17;;;;;3.00;97907.00;;;;10425085;28;20952;-76
2020/12/29 06:14:57;;;;;;;32.00;16.40;;;;;3.00;97920.00;;;;10424795;28;20248;-75
2020/12/29 06:20:05;;;;;;;27.90;15.67;;;;;3.00;97931.00;;;;10441191;28;20182;-75
2020/12/29 06:25:15;;;;;;;30.70;18.50;;;;;2.90;97933.00;;;;10440767;28;20233;-75
2020/12/29 06:30:19;;;;;;;34.80;19.53;;;;;2.90;97944.00;;;;10457076;28;20637;-75
2020/12/29 06:35:21;;;;;;;34.83;19.97;;;;;3.00;97951.00;;;;10424352;28;20285;-75
2020/12/29 06:40:22;;;;;;;38.37;22.57;;;;;3.00;97970.00;;;;10458907;28;20514;-75
2020/12/29 06:45:24;;;;;;;32.73;22.77;;;;;3.00;97972.00;;;;10439994;28;20214;-75
2020/12/29 06:50:31;;;;;;;45.70;29.20;;;;;3.10;97980.00;;;;10407091;28;20335;-75
2020/12/29 06:55:43;;;;;;;58.03;31.03;;;;;3.10;97982.00;;;;10456400;28;20194;-75
2020/12/29 07:00:44;;;;;;;50.47;31.17;;;;;3.10;97993.00;;;;10455985;28;20285;-75
2020/12/29 07:05:46;;;;;;;56.00;32.97;;;;;3.10;97996.00;;;;10423164;28;20237;-75
2020/12/29 07:10:48;;;;;;;54.17;29.30;;;;;3.10;98007.00;;;;10406358;28;20672;-75
2020/12/29 07:15:54;;;;;;;51.67;27.17;;;;;3.10;98028.00;;;;10414116;28;20241;-75
2020/12/29 07:20:58;;;;;;;55.50;32.97;;;;;3.10;98036.00;;;;10416014;28;20240;-76
2020/12/29 07:26:02;;;;;;;46.50;28.03;;;;;3.10;98046.00;;;;10365001;28;20710;-75
2020/12/29 07:31:04;;;;;;;43.60;24.73;;;;;3.10;98055.00;;;;10381453;28;20931;-75
2020/12/29 07:36:09;;;;;;;47.77;33.90;;;;;3.10;98053.00;;;;10397787;28;20195;-75
2020/12/29 07:41:12;;;;;;;43.20;23.83;;;;;3.00;98066.00;;;;10363629;28;20199;-75
2020/12/29 07:46:14;;;;;;;37.50;22.40;;;;;3.00;98060.00;;;;10444034;28;20210;-75
2020/12/29 07:51:15;;;;;;;43.83;22.20;;;;;3.00;98086.00;;;;10421676;28;20190;-75
2020/12/29 07:56:17;;;;;;;35.27;20.80;;;;;2.90;98087.00;;;;10438385;28;20209;-75
2020/12/29 08:01:19;;;;;;;39.67;23.33;;;;;3.00;98106.00;;;;10404973;28;20207;-76
2020/12/29 08:06:20;;;;;;;37.27;20.90;;;;;3.00;98118.00;;;;10421573;28;20280;-75
2020/12/29 08:11:22;;;;;;;39.73;23.47;;;;;3.00;98125.00;;;;10405373;28;20203;-75
2020/12/29 08:16:23;;;;;;;46.10;22.47;;;;;3.00;98128.00;;;;10387966;28;20186;-75
2020/12/29 08:21:25;;;;;;;36.33;21.53;;;;;3.00;98144.00;;;;10408608;28;20206;-75
2020/12/29 08:26:26;;;;;;;38.97;21.70;;;;;3.00;98154.00;;;;10433206;28;20214;-75
2020/12/29 08:31:29;;;;;;;39.63;22.97;;;;;3.00;98169.00;;;;10395432;28;20194;-75
2020/12/29 08:36:30;;;;;;;43.73;22.63;;;;;3.20;98175.00;;;;10417301;28;20190;-75
2020/12/29 08:41:38;;;;;;;46.87;21.90;;;;;3.20;98198.00;;;;10436734;28;20194;-75
2020/12/29 08:46:40;;;;;;;41.53;21.00;;;;;3.30;98200.00;;;;10454280;28;20269;-75
2020/12/29 08:51:43;;;;;;;38.80;21.70;;;;;3.40;98207.00;;;;10441920;28;20190;-75
2020/12/29 08:56:45;;;;;;;36.87;18.63;;;;;3.70;98227.00;;;;10427856;28;20657;-75
2020/12/29 09:01:54;;;;;;;34.60;18.23;;;;;3.90;98232.00;;;;10439697;28;20900;-75
2020/12/29 09:07:06;;;;;;;33.93;18.63;;;;;4.20;98254.00;;;;10406059;28;20704;-75
2020/12/29 09:12:18;;;;;;;27.47;16.80;;;;;4.40;98261.00;;;;10408179;28;20717;-75
2020/12/29 09:17:21;;;;;;;27.97;16.17;;;;;4.50;98263.00;;;;10447954;28;20194;-75
2020/12/29 09:22:22;;;;;;;29.43;15.50;;;;;4.90;98272.00;;;;10410848;28;20229;-75
2020/12/29 09:27:33;;;;;;;33.20;14.83;;;;;5.00;98288.00;;;;10412533;28;20218;-75
2020/12/29 09:32:34;;;;;;;23.67;15.60;;;;;4.90;98295.00;;;;10426955;28;20236;-75
2020/12/29 09:37:35;;;;;;;23.93;13.17;;;;;5.00;98288.00;;;;10443331;28;20217;-75
2020/12/29 09:42:37;;;;;;;22.63;14.03;;;;;4.90;98297.00;;;;10459057;28;20295;-75
2020/12/29 09:47:38;;;;;;;23.43;13.53;;;;;5.00;98300.00;;;;10434294;28;20241;-75
2020/12/29 09:52:40;;;;;;;25.53;14.03;;;;;5.10;98311.00;;;;10408331;28;20209;-75
2020/12/29 09:57:41;;;;;;;24.93;13.37;;;;;5.30;98310.00;;;;10389264;28;20191;-75
2020/12/29 10:02:42;;;;;;;21.77;13.00;;;;;5.80;98313.00;;;;10399346;28;20296;-75
2020/12/29 10:07:45;;;;;;;23.20;14.27;;;;;6.20;98325.00;;;;10401186;28;20607;-75
2020/12/29 10:12:46;;;;;;;20.40;12.07;;;;;6.30;98335.00;;;;10442622;28;20194;-76
2020/12/29 10:17:48;;;;;;;22.93;11.97;;;;;6.10;98341.00;;;;10458251;28;20244;-76
2020/12/29 10:22:49;;;;;;;19.50;11.67;;;;;6.20;98355.00;;;;10400503;28;20215;-75
2020/12/29 10:27:50;;;;;;;20.70;12.23;;;;;5.90;98366.00;;;;10416562;28;20245;-75
2020/12/29 10:32:52;;;;;;;21.83;11.53;;;;;5.90;98372.00;;;;10405806;28;20191;-76
2020/12/29 10:37:54;;;;;;;20.13;11.73;;;;;5.90;98385.00;;;;10415652;28;20219;-76
2020/12/29 10:42:55;;;;;;;20.23;13.20;;;;;5.80;98404.00;;;;10386427;28;20271;-76
2020/12/29 10:47:56;;;;;;;23.07;14.50;;;;;5.50;98410.00;;;;10441431;28;20260;-75
2020/12/29 10:52:58;;;;;;;19.33;13.57;;;;;5.40;98410.00;;;;10421012;28;20221;-75
2020/12/29 10:57:59;;;;;;;25.07;15.73;;;;;5.50;98413.00;;;;10416972;28;20205;-75
2020/12/29 11:03:03;;;;;;;30.43;16.47;;;;;5.70;98417.00;;;;10403973;28;20257;-75
2020/12/29 11:08:04;;;;;;;21.73;13.97;;;;;5.90;98427.00;;;;10422784;28;20654;-76
2020/12/29 11:13:06;;;;;;;25.80;15.30;;;;;6.20;98433.00;;;;10417736;28;20643;-76
2020/12/29 11:18:07;;;;;;;25.03;15.00;;;;;6.10;98436.00;;;;10429713;28;20269;-76
2020/12/29 11:23:09;;;;;;;24.23;14.63;;;;;6.20;98448.00;;;;10383302;28;20216;-76
2020/12/29 11:28:10;;;;;;;22.23;14.63;;;;;6.10;98448.00;;;;10438895;28;20267;-75
2020/12/29 11:33:12;;;;;;;22.80;14.63;;;;;6.00;98450.00;;;;10456648;28;20206;-76
2020/12/29 11:38:17;;;;;;;22.43;15.03;;;;;6.00;98451.00;;;;10396623;28;20281;-76
2020/12/29 11:43:19;;;;;;;24.03;15.07;;;;;5.90;98460.00;;;;10403544;28;20222;-76
2020/12/29 11:48:20;;;;;;;25.40;15.23;;;;;5.80;98460.00;;;;10421977;28;20216;-76
2020/12/29 11:53:21;;;;;;;21.80;14.73;;;;;5.70;98462.00;;;;10437884;28;20232;-76
2020/12/29 11:58:22;;;;;;;22.90;15.53;;;;;5.60;98466.00;;;;10407278;28;20285;-76
2020/12/29 12:03:24;;;;;;;23.07;15.43;;;;;6.00;98468.00;;;;10397352;28;20211;-76
2020/12/29 12:08:26;;;;;;;20.90;13.63;;;;;6.00;98461.00;;;;10396661;28;20195;-76
2020/12/29 12:13:32;;;;;;;25.57;15.27;;;;;5.70;98480.00;;;;10389272;28;20218;-76
2020/12/29 12:18:33;;;;;;;27.27;19.17;;;;;5.60;98482.00;;;;10437873;28;20194;-76
2020/12/29 12:23:36;;;;;;;23.97;17.63;;;;;5.80;98490.00;;;;10436519;28;20206;-76
2020/12/29 12:28:37;;;;;;;26.57;17.73;;;;;6.00;98483.00;;;;10420542;28;20220;-75
2020/12/29 12:33:39;;;;;;;23.57;15.43;;;;;6.20;98495.00;;;;10421184;28;20236;-76
2020/12/29 12:38:41;;;;;;;20.43;14.10;;;;;6.20;98506.00;;;;10454531;28;20190;-75
2020/12/29 12:43:44;;;;;;;23.60;13.60;;;;;6.30;98509.00;;;;10426168;28;20272;-76
2020/12/29 12:48:46;;;;;;;18.43;12.67;;;;;6.10;98520.00;;;;10419876;28;20190;-76
2020/12/29 12:53:47;;;;;;;20.40;14.40;;;;;6.00;98525.00;;;;10412516;28;20586;-76
2020/12/29 12:58:49;;;;;;;18.50;12.33;;;;;5.90;98526.00;;;;10395822;28;20290;-76
2020/12/29 13:03:50;;;;;;;18.50;12.23;;;;;5.80;98525.00;;;;10412213;28;20211;-76
2020/12/29 13:08:55;;;;;;;15.73;11.83;;;;;5.70;98531.00;;;;10378579;28;20229;-76
2020/12/29 13:13:56;;;;;;;17.00;10.70;;;;;5.90;98535.00;;;;10406673;28;20194;-76
2020/12/29 13:18:57;;;;;;;14.73;9.80;;;;;6.10;98547.00;;;;10435882;28;20186;-76
2020/12/29 13:24:02;;;;;;;16.03;10.00;;;;;6.00;98548.00;;;;10435811;28;20543;-76
2020/12/29 13:29:08;;;;;;;16.00;11.13;;;;;6.00;98549.00;;;;10454333;28;20193;-76
2020/12/29 13:34:10;;;;;;;18.10;11.73;;;;;5.90;98553.00;;;;10453339;28;20196;-76
2020/12/29 13:39:16;;;;;;;16.67;10.70;;;;;6.00;98554.00;;;;10441133;28;20270;-76
2020/12/29 13:44:17;;;;;;;20.00;10.07;;;;;6.20;98560.00;;;;10440800;28;20300;-76
2020/12/29 13:49:19;;;;;;;13.43;10.07;;;;;6.20;98571.00;;;;10415131;28;20280;-76
2020/12/29 13:54:20;;;;;;;12.57;8.33;;;;;6.10;98581.00;;;;10438674;28;21023;-75
2020/12/29 13:59:21;;;;;;;14.87;9.37;;;;;6.10;98588.00;;;;10411568;28;20573;-76
2020/12/29 14:04:23;;;;;;;15.67;9.73;;;;;6.00;98584.00;;;;10419457;28;20218;-75
2020/12/29 14:09:25;;;;;;;12.60;9.43;;;;;5.80;98594.00;;;;10418074;28;20202;-75
2020/12/29 14:14:28;;;;;;;14.47;9.73;;;;;5.70;98599.00;;;;10416553;28;20202;-76
2020/12/29 14:19:29;;;;;;;26.33;17.77;;;;;5.50;98605.00;;;;10453584;28;20194;-76
2020/12/29 14:24:30;;;;;;;13.53;9.80;;;;;5.40;98612.00;;;;10443015;28;20263;-75
2020/12/29 14:29:31;;;;;;;12.73;9.50;;;;;5.20;98613.00;;;;10441407;28;20210;-76
2020/12/29 14:34:33;;;;;;;14.20;10.10;;;;;5.10;98632.00;;;;10425037;28;20198;-76
2020/12/29 14:39:35;;;;;;;11.77;8.50;;;;;4.90;98641.00;;;;10408503;28;20194;-76
2020/12/29 14:44:36;;;;;;;16.03;9.13;;;;;4.90;98645.00;;;;10424465;28;20238;-76
2020/12/29 14:49:38;;;;;;;13.93;9.67;;;;;4.80;98656.00;;;;10407390;28;20198;-76
2020/12/29 14:54:40;;;;;;;19.97;10.63;;;;;4.70;98659.00;;;;10406557;28;20190;-76
2020/12/29 14:59:41;;;;;;;15.17;10.70;;;;;4.60;98667.00;;;;10427346;28;20223;-76
2020/12/29 15:04:42;;;;;;;19.43;11.73;;;;;4.50;98669.00;;;;10408635;28;20241;-75
2020/12/29 15:09:44;;;;;;;16.53;12.13;;;;;4.40;98674.00;;;;10424452;28;20243;-76
2020/12/29 15:14:45;;;;;;;17.23;12.90;;;;;4.30;98681.00;;;;10402003;28;20221;-75
2020/12/29 15:19:47;;;;;;;19.17;13.27;;;;;4.30;98683.00;;;;10432299;28;20276;-76
2020/12/29 15:24:49;;;;;;;25.47;17.07;;;;;4.40;98699.00;;;;10409544;28;20234;-75
2020/12/29 15:29:50;;;;;;;21.93;14.13;;;;;4.40;98713.00;;;;10415242;28;20774;-76
2020/12/29 15:34:51;;;;;;;18.40;12.43;;;;;4.40;98714.00;;;;10453090;28;20590;-75
2020/12/29 15:39:53;;;;;;;25.77;14.07;;;;;4.40;98715.00;;;;10421760;28;20198;-75
2020/12/29 15:44:54;;;;;;;18.27;12.63;;;;;4.40;98729.00;;;;10389986;28;20264;-75
2020/12/29 15:49:55;;;;;;;20.90;12.17;;;;;4.30;98733.00;;;;10411128;28;20218;-76
2020/12/29 15:54:56;;;;;;;16.50;12.50;;;;;4.10;98745.00;;;;10399969;28;20583;-76
2020/12/29 15:59:58;;;;;;;20.57;14.67;;;;;4.00;98746.00;;;;10398940;28;20322;-76
2020/12/29 16:04:59;;;;;;;20.33;14.63;;;;;3.90;98757.00;;;;10397577;28;20214;-76
2020/12/29 16:10:05;;;;;;;22.57;14.80;;;;;4.00;98765.00;;;;10397611;28;20217;-75
2020/12/29 16:15:06;;;;;;;20.20;15.37;;;;;4.00;98764.00;;;;10434776;28;20210;-75
2020/12/29 16:20:08;;;;;;;24.87;17.40;;;;;3.90;98764.00;;;;10438242;28;20213;-75
2020/12/29 16:25:10;;;;;;;22.23;15.57;;;;;3.70;98780.00;;;;10421987;28;20217;-75
2020/12/29 16:30:12;;;;;;;21.47;13.37;;;;;3.50;98778.00;;;;10404704;28;20244;-75
2020/12/29 16:35:14;;;;;;;22.67;15.17;;;;;3.40;98781.00;;;;10433573;28;20212;-75
2020/12/29 16:40:16;;;;;;;25.00;15.67;;;;;3.30;98795.00;;;;10418001;28;20248;-75
2020/12/29 16:45:19;;;;;;;28.33;17.43;;;;;3.30;98801.00;;;;10436874;28;20210;-75
2020/12/29 16:50:20;;;;;;;27.97;17.03;;;;;3.40;98814.00;;;;10413838;28;20607;-75
2020/12/29 16:55:21;;;;;;;27.40;17.33;;;;;3.40;98813.00;;;;10392858;28;20226;-75
2020/12/29 17:00:23;;;;;;;19.30;14.70;;;;;3.40;98818.00;;;;10419946;28;20206;-75
2020/12/29 17:05:24;;;;;;;27.73;15.47;;;;;3.50;98829.00;;;;10423614;28;20214;-75
2020/12/29 17:10:26;;;;;;;23.83;15.97;;;;;3.50;98824.00;;;;10396566;28;20252;-75
2020/12/29 17:15:27;;;;;;;26.70;16.27;;;;;3.50;98826.00;;;;10403661;28;20724;-75
2020/12/29 17:20:28;;;;;;;26.50;15.77;;;;;3.50;98838.00;;;;10460964;28;20198;-75
2020/12/29 17:25:29;;;;;;;30.47;17.17;;;;;3.50;98835.00;;;;10414936;28;20214;-75
2020/12/29 17:30:31;;;;;;;24.70;15.47;;;;;3.50;98842.00;;;;10430728;28;20278;-75
2020/12/29 17:35:33;;;;;;;28.20;15.73;;;;;3.50;98853.00;;;;10437825;28;20198;-75
2020/12/29 17:40:34;;;;;;;24.77;17.43;;;;;3.50;98854.00;;;;10436333;28;20252;-75
2020/12/29 17:45:37;;;;;;;28.43;18.47;;;;;3.50;98856.00;;;;10422905;28;20225;-75
2020/12/29 17:50:38;;;;;;;21.07;14.30;;;;;3.50;98867.00;;;;10408955;28;20225;-75
2020/12/29 17:55:43;;;;;;;30.70;16.20;;;;;3.40;98878.00;;;;10427033;28;20194;-75
2020/12/29 18:00:44;;;;;;;23.50;14.73;;;;;3.30;98897.00;;;;10414463;28;20952;-75
2020/12/29 18:05:46;;;;;;;28.07;16.40;;;;;3.30;98898.00;;;;10441268;28;20284;-75
2020/12/29 18:10:48;;;;;;;25.60;16.53;;;;;3.30;98904.00;;;;10398946;28;20221;-75
2020/12/29 18:15:50;;;;;;;25.97;15.47;;;;;3.40;98916.00;;;;10401801;28;20194;-75
2020/12/29 18:20:51;;;;;;;27.03;16.80;;;;;3.50;98913.00;;;;10437166;28;20187;-75
2020/12/29 18:25:52;;;;;;;34.23;17.47;;;;;3.60;98922.00;;;;10429378;28;20202;-75
2020/12/29 18:30:54;;;;;;;24.73;17.23;;;;;3.70;98934.00;;;;10442658;28;20209;-75
2020/12/29 18:35:55;;;;;;;26.33;17.37;;;;;3.70;98949.00;;;;10416595;28;20704;-75
2020/12/29 18:41:10;;;;;;;35.37;21.90;;;;;3.80;98956.00;;;;10449227;28;20684;-75
2020/12/29 18:46:20;;;;;;;38.20;23.03;;;;;3.80;98964.00;;;;10433468;28;20686;-75
2020/12/29 18:51:21;;;;;;;28.57;19.33;;;;;3.80;98971.00;;;;10419288;28;20578;-75
2020/12/29 18:56:23;;;;;;;32.17;20.57;;;;;3.80;98979.00;;;;10441253;28;20224;-75
2020/12/29 19:01:29;;;;;;;29.17;19.43;;;;;3.70;98992.00;;;;10430645;28;20190;-75
2020/12/29 19:06:30;;;;;;;28.70;18.80;;;;;3.70;98989.00;;;;10419010;28;20203;-75
2020/12/29 19:11:32;;;;;;;27.80;18.60;;;;;3.80;99009.00;;;;10399567;28;20217;-75
2020/12/29 19:16:33;;;;;;;25.20;17.80;;;;;3.80;99012.00;;;;10423932;28;20252;-75
2020/12/29 19:21:35;;;;;;;22.33;16.23;;;;;3.80;99020.00;;;;10407805;28;20244;-75
2020/12/29 19:26:44;;;;;;;33.10;19.27;;;;;3.80;99021.00;;;;10397469;28;20297;-75
2020/12/29 19:31:45;;;;;;;25.37;17.97;;;;;3.80;99013.00;;;;10415662;28;20638;-75
2020/12/29 19:36:47;;;;;;;26.40;18.50;;;;;3.80;99014.00;;;;10370943;28;20653;-75
2020/12/29 19:41:49;;;;;;;27.63;18.07;;;;;3.80;99012.00;;;;10419024;28;20676;-75
2020/12/29 19:46:55;;;;;;;28.97;18.80;;;;;3.80;99018.00;;;;10429369;28;20195;-75
2020/12/29 19:51:57;;;;;;;28.93;18.57;;;;;3.80;99022.00;;;;10384890;28;20256;-75
2020/12/29 19:56:58;;;;;;;33.90;19.63;;;;;3.80;99034.00;;;;10396413;28;20218;-75
2020/12/29 20:01:59;;;;;;;26.80;17.30;;;;;3.70;99024.00;;;;10396269;28;20214;-75
2020/12/29 20:07:04;;;;;;;30.57;17.50;;;;;3.70;99019.00;;;;10396744;28;20684;-75
2020/12/29 20:12:05;;;;;;;23.37;15.97;;;;;3.60;99022.00;;;;10383789;28;20539;-75
2020/12/29 20:17:07;;;;;;;22.53;17.17;;;;;3.60;99034.00;;;;10436046;28;20186;-75
2020/12/29 20:22:08;;;;;;;21.77;15.03;;;;;3.70;99030.00;;;;10415914;28;20221;-75
2020/12/29 20:27:09;;;;;;;24.60;15.37;;;;;3.70;99052.00;;;;10406682;28;20226;-75
2020/12/29 20:32:12;;;;;;;21.97;14.67;;;;;3.80;99041.00;;;;10391828;28;20263;-75
2020/12/29 20:37:13;;;;;;;22.23;13.80;;;;;3.80;99041.00;;;;10416647;28;20242;-75
2020/12/29 20:42:14;;;;;;;18.13;12.73;;;;;3.60;99054.00;;;;10422026;28;20244;-75
2020/12/29 20:47:16;;;;;;;18.63;12.37;;;;;3.50;99043.00;;;;10434108;28;20207;-75
2020/12/29 20:52:20;;;;;;;18.90;14.00;;;;;3.30;99055.00;;;;10441079;28;20273;-75
2020/12/29 20:57:21;;;;;;;18.63;13.37;;;;;3.20;99049.00;;;;10455258;28;20198;-75
2020/12/29 21:02:22;;;;;;;17.93;12.23;;;;;3.00;99069.00;;;;10452171;28;20259;-75
2020/12/29 21:07:24;;;;;;;16.80;12.57;;;;;2.80;99078.00;;;;10447092;28;20236;-75
2020/12/29 21:12:26;;;;;;;43.20;38.63;;;;;2.60;99072.00;;;;10422997;28;20614;-75
2020/12/29 21:17:28;;;;;;;22.13;18.43;;;;;2.40;99080.00;;;;10408031;28;20186;-75
2020/12/29 21:22:29;;;;;;;18.67;13.27;;;;;2.20;99082.00;;;;10435083;28;20249;-75
2020/12/29 21:27:31;;;;;;;18.43;13.47;;;;;2.20;99082.00;;;;10436700;28;20293;-75
2020/12/29 21:32:35;;;;;;;20.10;13.27;;;;;2.20;99075.00;;;;10407185;28;20197;-75
2020/12/29 21:37:36;;;;;;;22.73;14.23;;;;;2.20;99074.00;;;;10416375;28;20586;-75
2020/12/29 21:42:38;;;;;;;22.70;14.47;;;;;2.30;99087.00;;;;10420541;28;20223;-75
2020/12/29 21:47:39;;;;;;;19.97;13.57;;;;;2.30;99087.00;;;;10411408;28;20202;-75
2020/12/29 21:52:40;;;;;;;20.43;13.57;;;;;2.30;99092.00;;;;10442174;28;20331;-75
2020/12/29 21:57:55;;;;;;;22.77;13.23;;;;;2.20;99104.00;;;;10395456;28;20190;-75
2020/12/29 22:02:56;;;;;;;21.03;14.00;;;;;1.90;99108.00;;;;10439029;28;20234;-75
2020/12/29 22:07:57;;;;;;;27.93;16.30;;;;;1.70;99110.00;;;;10428169;28;20241;-75
2020/12/29 22:12:58;;;;;;;23.67;14.67;;;;;1.50;99115.00;;;;10415776;28;20348;-75
2020/12/29 22:18:04;;;;;;;24.67;14.93;;;;;1.40;99116.00;;;;10422948;28;20194;-75
2020/12/29 22:23:05;;;;;;;22.37;15.20;;;;;1.30;99134.00;;;;10414526;28;20201;-75
2020/12/29 22:28:07;;;;;;;26.03;16.83;;;;;1.30;99135.00;;;;10389532;28;20515;-75
2020/12/29 22:33:08;;;;;;;26.40;16.10;;;;;1.30;99139.00;;;;10428611;28;20225;-75
2020/12/29 22:38:09;;;;;;;30.47;17.60;;;;;1.50;99151.00;;;;10435408;28;20276;-74
2020/12/29 22:43:11;;;;;;;26.23;17.60;;;;;1.70;99154.00;;;;10416694;28;20909;-75
2020/12/29 22:48:13;;;;;;;30.67;19.97;;;;;1.80;99166.00;;;;10410539;28;20187;-75
2020/12/29 22:53:14;;;;;;;33.40;21.03;;;;;2.00;99158.00;;;;10426054;28;20202;-74
2020/12/29 22:58:16;;;;;;;35.53;21.20;;;;;2.10;99167.00;;;;10430447;28;20194;-75
2020/12/29 23:03:17;;;;;;;31.67;21.63;;;;;2.00;99168.00;;;;10400572;28;20222;-75
2020/12/29 23:08:19;;;;;;;29.37;19.27;;;;;1.90;99164.00;;;;10404502;28;20340;-75
2020/12/29 23:13:20;;;;;;;33.07;20.30;;;;;1.80;99172.00;;;;10397791;28;20281;-75
2020/12/29 23:18:23;;;;;;;35.57;20.53;;;;;1.80;99184.00;;;;10407383;28;20194;-75
2020/12/29 23:23:29;;;;;;;40.17;21.83;;;;;1.90;99185.00;;;;10426898;28;20213;-74
2020/12/29 23:28:31;;;;;;;37.13;21.77;;;;;1.90;99193.00;;;;10425629;28;20232;-75
2020/12/29 23:33:32;;;;;;;34.20;20.83;;;;;1.90;99193.00;;;;10403640;28;20266;-75
2020/12/29 23:38:34;;;;;;;35.23;21.50;;;;;2.00;99200.00;;;;10414251;28;20194;-74
2020/12/29 23:43:38;;;;;;;38.30;22.13;;;;;2.10;99202.00;;;;10402599;28;20246;-75
2020/12/29 23:48:39;;;;;;;35.47;20.60;;;;;2.30;99198.00;;;;10424475;28;20637;-75
2020/12/29 23:53:42;;;;;;;36.97;20.60;;;;;2.40;99202.00;;;;10405339;28;20187;-75
2020/12/29 23:58:44;;;;;;;33.27;19.93;;;;;2.30;99205.00;;;;10428421;28;20240;-75
